Change the Weather History Date:

Monday, August 26, 2013

  Actual Average (KGUC) Record (KGUC)
Temperature  
Mean Temperature 73 °F -  
Max Temperature 84 °F 73 °F 82 °F (2002)
Min Temperature 62 °F 40 °F 33 °F (2002)
Cooling Degree Days 8    
Growing Degree Days 23 (Base 50)    
Moisture  
Dew Point 49 °F    
Average Humidity 46    
Maximum Humidity 64    
Minimum Humidity 26    
Precipitation  
Precipitation 0.00 in - - ()
Sea Level Pressure  
Sea Level Pressure 30.45 in    
Wind  
Wind Speed 8 mph (SW)    
Max Wind Speed 18 mph    
Max Gust Speed 25 mph    
Visibility 10 miles    
Events      
Averages and records for this station are not official NWS values.
T = Trace of Precipitation, MM = Missing Value Source: NWS Daily Summary

Daily Weather History Graph

Daily Weather History Graph

Search for Another Location

Airport or City:

Trip Planner

Search our weather history database for the weather conditions in past years. The results will help you decide how hot, cold, wet, or windy it might be!

Date:

Astronomy

Aug. 26, 2013 Rise Set
Actual Time 6:28 AM MDT 7:42 PM MDT
Civil Twilight 6:00 AM MDT 8:10 PM MDT
Nautical Twilight 5:28 AM MDT 8:42 PM MDT
Astronomical Twilight 4:53 AM MDT 9:17 PM MDT
Moon 11:00 PM MDT (8/26) 12:27 PM MDT (8/26)
Length of Visible Light 14h 09m
Length of Day
13h 14m
Waning Gibbous, 66% of the Moon is Illuminated
Aug 26
Waning Gibbous
Aug 28
Last Quarter
Sep 5
New
Sep 12
First Quarter
Sep 19
Full

Hourly Weather History & Observations

Time (MDT) Temp. Dew Point Humidity Pressure Visibility Wind Dir Wind Speed Gust Speed Precip Events Conditions
12:15 AM 66.2 °F 50.9 °F 58% 30.49 in 10.0 mi NE 3.5 mph - N/A   Overcast
12:35 AM 66.2 °F 50.9 °F 58% 30.49 in 10.0 mi WSW 3.5 mph - N/A   Scattered Clouds
12:55 AM 65.7 °F 49.8 °F 57% 30.49 in 10.0 mi SSW 8.1 mph - N/A   Scattered Clouds
1:15 AM 64.9 °F 50.7 °F 60% 30.49 in 10.0 mi SSW 5.8 mph - N/A   Scattered Clouds
1:35 AM 63.9 °F 50.9 °F 63% 30.49 in 10.0 mi WSW 3.5 mph - N/A   Mostly Cloudy
1:55 AM 65.1 °F 50.7 °F 60% 30.49 in 10.0 mi SSW 11.5 mph 19.6 mph N/A   Scattered Clouds
2:15 AM 64.4 °F 52.2 °F 64% 30.49 in 10.0 mi SW 9.2 mph - N/A   Scattered Clouds
2:35 AM 64.6 °F 52.0 °F 64% 30.49 in 10.0 mi SSW 4.6 mph - N/A   Mostly Cloudy
2:55 AM 65.1 °F 50.9 °F 60% 30.49 in 10.0 mi South 10.4 mph - N/A   Overcast
3:15 AM 64.6 °F 51.3 °F 62% 30.48 in 10.0 mi SSW 5.8 mph - N/A   Scattered Clouds
3:35 AM 65.1 °F 50.5 °F 59% 30.48 in 10.0 mi SW 11.5 mph 16.1 mph N/A   Clear
3:55 AM 65.3 °F 50.9 °F 60% 30.48 in 10.0 mi SW 12.7 mph 20.7 mph N/A   Scattered Clouds
4:15 AM 65.1 °F 50.5 °F 59% 30.47 in 10.0 mi SW 15.0 mph 19.6 mph N/A   Scattered Clouds
4:35 AM 65.5 °F 50.2 °F 58% 30.48 in 10.0 mi SW 12.7 mph 18.4 mph N/A   Clear
4:55 AM 65.3 °F 50.9 °F 60% 30.49 in 10.0 mi SSW 6.9 mph 18.4 mph N/A   Clear
5:15 AM 64.4 °F 51.1 °F 62% 30.49 in 10.0 mi SW 3.5 mph - N/A   Scattered Clouds
5:35 AM 63.3 °F 50.9 °F 64% 30.49 in 10.0 mi West 8.1 mph - N/A   Clear
5:55 AM 63.3 °F 51.1 °F 64% 30.49 in 10.0 mi West 5.8 mph - N/A   Clear
6:15 AM 63.5 °F 50.9 °F 63% 30.49 in 10.0 mi West 4.6 mph - N/A   Clear
6:35 AM 64.0 °F 50.9 °F 62% 30.50 in 10.0 mi Calm Calm - N/A   Scattered Clouds
6:55 AM 64.0 °F 51.1 °F 63% 30.50 in 10.0 mi NW 6.9 mph - N/A   Scattered Clouds
7:15 AM 65.5 °F 51.1 °F 60% 30.50 in 10.0 mi WSW 4.6 mph - N/A   Clear
7:35 AM 66.0 °F 51.6 °F 60% 30.50 in 10.0 mi West 6.9 mph - N/A   Clear
7:55 AM 68.2 °F 50.7 °F 54% 30.50 in 10.0 mi SSW 8.1 mph - N/A   Clear
8:15 AM 68.9 °F 50.2 °F 51% 30.49 in 10.0 mi West 6.9 mph - N/A   Clear
8:55 AM 71.6 °F 48.4 °F 44% 30.49 in 10.0 mi SW 6.9 mph - N/A   Clear
9:15 AM 73.0 °F 48.2 °F 41% 30.49 in 10.0 mi SSW 8.1 mph 17.3 mph N/A   Clear
9:35 AM 73.4 °F 47.8 °F 40% 30.48 in 10.0 mi South 6.9 mph - N/A   Clear
9:55 AM 75.2 °F 47.8 °F 38% 30.48 in 10.0 mi South 10.4 mph 17.3 mph N/A   Clear
10:15 AM 76.1 °F 47.7 °F 37% 30.48 in 10.0 mi South 11.5 mph 16.1 mph N/A   Clear
10:35 AM 76.6 °F 47.7 °F 36% 30.48 in 10.0 mi SW 13.8 mph 21.9 mph N/A   Clear
10:55 AM 77.9 °F 47.7 °F 34% 30.48 in 10.0 mi SW 12.7 mph 17.3 mph N/A   Clear
11:15 AM 77.9 °F 47.7 °F 34% 30.47 in 10.0 mi South 10.4 mph 19.6 mph N/A   Clear
11:35 AM 79.5 °F 46.8 °F 31% 30.46 in 10.0 mi South 15.0 mph 20.7 mph N/A   Clear
11:55 AM 80.1 °F 46.8 °F 31% 30.45 in 10.0 mi SSW 10.4 mph 21.9 mph N/A   Clear
12:15 PM 81.5 °F 46.6 °F 29% 30.45 in 10.0 mi SW 12.7 mph 20.7 mph N/A   Clear
12:35 PM 81.3 °F 46.6 °F 29% 30.44 in 10.0 mi South 16.1 mph 25.3 mph N/A   Clear
12:55 PM 81.1 °F 46.8 °F 30% 30.44 in 10.0 mi South 15.0 mph 23.0 mph N/A   Clear
1:15 PM 82.9 °F 46.6 °F 28% 30.43 in 10.0 mi SSW 11.5 mph 20.7 mph N/A   Clear
1:35 PM 82.4 °F 46.2 °F 28% 30.43 in 10.0 mi South 11.5 mph 20.7 mph N/A   Clear
1:55 PM 82.6 °F 46.8 °F 28% 30.42 in 10.0 mi South 11.5 mph 21.9 mph N/A   Clear
2:15 PM 84.0 °F 46.0 °F 26% 30.42 in 10.0 mi South 11.5 mph 19.6 mph N/A   Clear
2:35 PM 83.7 °F 46.9 °F 28% 30.42 in 10.0 mi South 16.1 mph 21.9 mph N/A   Scattered Clouds
2:55 PM 80.1 °F 47.7 °F 32% 30.42 in 10.0 mi SW 18.4 mph 24.2 mph N/A   Mostly Cloudy
3:15 PM 77.9 °F 48.9 °F 36% 30.41 in 10.0 mi South 13.8 mph 20.7 mph N/A   Overcast
3:35 PM 77.7 °F 48.4 °F 36% 30.41 in 10.0 mi South 13.8 mph 20.7 mph N/A   Overcast
3:55 PM 80.6 °F 46.9 °F 31% 30.40 in 10.0 mi South 13.8 mph 21.9 mph N/A   Overcast
4:15 PM 79.9 °F 47.1 °F 32% 30.40 in 10.0 mi SSW 11.5 mph 18.4 mph N/A   Mostly Cloudy
4:35 PM 78.8 °F 48.9 °F 35% 30.39 in 10.0 mi SSW 10.4 mph 18.4 mph N/A   Scattered Clouds
4:55 PM 79.7 °F 46.4 °F 31% 30.39 in 10.0 mi South 11.5 mph 18.4 mph N/A   Mostly Cloudy
5:15 PM 82.6 °F 47.5 °F 29% 30.38 in 10.0 mi South 10.4 mph 16.1 mph N/A   Mostly Cloudy
5:35 PM 82.6 °F 45.9 °F 28% 30.38 in 10.0 mi SSW 10.4 mph - N/A   Scattered Clouds
5:55 PM 78.8 °F 47.8 °F 34% 30.38 in 10.0 mi WSW 8.1 mph - N/A   Scattered Clouds
6:15 PM 77.9 °F 48.7 °F 36% 30.37 in 10.0 mi WSW 10.4 mph - N/A   Scattered Clouds
6:35 PM 77.0 °F 48.2 °F 36% 30.37 in 10.0 mi WSW 6.9 mph - N/A   Mostly Cloudy
6:55 PM 76.5 °F 48.0 °F 37% 30.37 in 10.0 mi West 11.5 mph - N/A   Mostly Cloudy
7:15 PM 76.1 °F 48.0 °F 37% 30.37 in 10.0 mi WNW 8.1 mph - N/A   Mostly Cloudy
7:35 PM 75.2 °F 48.4 °F 39% 30.38 in 10.0 mi West 3.5 mph - N/A   Mostly Cloudy
7:55 PM 74.5 °F 49.1 °F 41% 30.38 in 10.0 mi WNW 6.9 mph - N/A   Scattered Clouds
8:15 PM 74.1 °F 48.4 °F 40% 30.39 in 10.0 mi WNW 12.7 mph - N/A   Scattered Clouds
8:35 PM 73.4 °F 47.3 °F 39% 30.40 in 10.0 mi NW 9.2 mph - N/A   Scattered Clouds
8:55 PM 72.0 °F 47.5 °F 42% 30.41 in 10.0 mi NW 9.2 mph - N/A   Mostly Cloudy
9:15 PM 71.1 °F 47.8 °F 44% 30.42 in 10.0 mi NW 9.2 mph - N/A   Mostly Cloudy
9:35 PM 70.0 °F 49.1 °F 47% 30.42 in 10.0 mi NW 11.5 mph - N/A   Mostly Cloudy
9:55 PM 68.9 °F 48.9 °F 49% 30.43 in 10.0 mi NW 8.1 mph - N/A   Mostly Cloudy
10:15 PM 68.5 °F 48.9 °F 49% 30.43 in 10.0 mi WNW 10.4 mph 16.1 mph N/A   Mostly Cloudy
10:35 PM 67.5 °F 49.3 °F 52% 30.44 in 10.0 mi WNW 9.2 mph - N/A   Scattered Clouds
10:55 PM 65.8 °F 49.5 °F 55% 30.45 in 10.0 mi NW 4.6 mph - N/A   Scattered Clouds
11:15 PM 64.8 °F 49.6 °F 58% 30.45 in 10.0 mi WSW 4.6 mph - N/A   Clear
11:35 PM 62.6 °F 49.6 °F 63% 30.45 in 10.0 mi WSW 6.9 mph - N/A   Clear
11:55 PM 63.0 °F 49.1 °F 61% 30.45 in 10.0 mi WSW 6.9 mph - N/A   Clear